Time;durP1;ratioP1;P1;durP2;ratioP2;P2;SDS_P1;SDS_P2;PMS_P1;PMS_P2;Temp;Humidity;BMP_temperature;BMP_pressure;BME280_temperature;BME280_humidity;BME280_pressure;Samples;Min_cycle;Max_cycle;Signal;HPM_P1;HPM_P2
2023/03/10 00:01:20;;;;;;;0.70;0.30;;;11.30;99.90;;;;;;5074837;28;20747;-58
2023/03/10 00:03:47;;;;;;;1.10;0.40;;;11.30;99.90;;;;;;5075275;28;20427;-57
2023/03/10 00:06:18;;;;;;;0.90;0.30;;;11.20;99.90;;;;;;5075122;28;20771;-53
2023/03/10 00:08:46;;;;;;;0.80;0.30;;;11.20;99.90;;;;;;5074822;28;20561;-52
2023/03/10 00:11:14;;;;;;;1.40;0.30;;;11.20;99.90;;;;;;5075715;28;20420;-50
2023/03/10 00:13:41;;;;;;;1.25;0.30;;;11.20;99.90;;;;;;5075531;28;20489;-56
2023/03/10 00:16:11;;;;;;;0.90;0.40;;;11.10;99.90;;;;;;5075031;28;20423;-55
2023/03/10 00:18:38;;;;;;;1.27;0.30;;;11.10;99.90;;;;;;5073543;28;20715;-54
2023/03/10 00:21:06;;;;;;;1.00;0.40;;;11.10;99.90;;;;;;5075342;28;20816;-51
2023/03/10 00:23:34;;;;;;;0.88;0.30;;;11.00;99.90;;;;;;5074618;28;20436;-54
2023/03/10 00:26:01;;;;;;;0.80;0.30;;;11.00;99.90;;;;;;5071883;28;20419;-55
2023/03/10 00:28:28;;;;;;;0.70;0.35;;;11.00;99.90;;;;;;5074982;28;20850;-57
2023/03/10 00:31:00;;;;;;;1.10;0.30;;;10.90;99.90;;;;;;5074875;28;20693;-56
2023/03/10 00:33:27;;;;;;;0.80;0.30;;;10.90;99.90;;;;;;5075072;28;20428;-55
2023/03/10 00:36:09;;;;;;;2.20;0.40;;;10.80;99.90;;;;;;5074505;28;20423;-53
2023/03/10 00:38:38;;;;;;;1.10;0.30;;;10.80;99.90;;;;;;5073445;28;20514;-53
2023/03/10 00:41:07;;;;;;;1.20;0.40;;;10.80;99.90;;;;;;5073683;28;20849;-55
2023/03/10 00:43:35;;;;;;;1.30;0.40;;;10.80;99.90;;;;;;5073917;28;20502;-56
2023/03/10 00:46:02;;;;;;;0.98;0.30;;;10.80;99.90;;;;;;5074233;28;20427;-55
2023/03/10 00:48:29;;;;;;;0.88;0.40;;;10.90;99.90;;;;;;5072716;28;20434;-54
2023/03/10 00:50:57;;;;;;;1.10;0.40;;;10.80;99.90;;;;;;5074250;28;20423;-55
2023/03/10 00:53:24;;;;;;;0.60;0.30;;;10.80;99.90;;;;;;5074770;28;20730;-55
2023/03/10 00:56:01;;;;;;;1.50;0.40;;;10.80;99.90;;;;;;5073387;28;20423;-55
2023/03/10 00:58:29;;;;;;;0.80;0.30;;;10.80;99.90;;;;;;5074441;28;20423;-55
2023/03/10 01:00:57;;;;;;;0.68;0.30;;;10.90;99.90;;;;;;5074678;28;20439;-52
2023/03/10 01:03:25;;;;;;;0.52;0.30;;;10.80;99.90;;;;;;5073627;28;20428;-54
2023/03/10 01:05:53;;;;;;;1.05;0.30;;;10.80;99.90;;;;;;5074411;28;20423;-54
2023/03/10 01:08:21;;;;;;;0.60;0.30;;;10.80;99.90;;;;;;5074503;28;20458;-56
2023/03/10 01:10:49;;;;;;;0.50;0.30;;;10.70;99.90;;;;;;5074777;28;20415;-52
2023/03/10 01:13:19;;;;;;;0.70;0.30;;;10.70;99.90;;;;;;5074804;28;20420;-51
2023/03/10 01:15:47;;;;;;;0.50;0.22;;;10.70;99.90;;;;;;5074840;28;20715;-55
2023/03/10 01:18:15;;;;;;;0.80;0.30;;;10.70;99.90;;;;;;5074239;28;20489;-55
2023/03/10 01:20:43;;;;;;;0.80;0.30;;;10.70;99.90;;;;;;5074958;28;20450;-54
2023/03/10 01:23:14;;;;;;;1.00;0.30;;;10.70;99.90;;;;;;5074262;28;20819;-52
2023/03/10 01:25:42;;;;;;;1.20;0.30;;;10.70;99.90;;;;;;5074392;28;20731;-56
2023/03/10 01:28:09;;;;;;;1.20;0.30;;;10.80;99.90;;;;;;5074609;28;20731;-55
2023/03/10 01:30:37;;;;;;;0.80;0.30;;;10.80;99.90;;;;;;5076872;28;20422;-55
2023/03/10 01:33:05;;;;;;;0.50;0.30;;;10.80;99.90;;;;;;5078126;28;20418;-56
2023/03/10 01:35:33;;;;;;;1.10;0.30;;;10.70;99.90;;;;;;5078409;28;20715;-55
2023/03/10 01:38:00;;;;;;;0.60;0.30;;;10.70;99.90;;;;;;5078600;28;20431;-55
2023/03/10 01:40:28;;;;;;;0.82;0.30;;;10.60;99.90;;;;;;5077929;28;20419;-57
2023/03/10 01:43:28;;;;;;;0.90;0.30;;;10.60;99.90;;;;;;5078539;28;20415;-55
2023/03/10 01:46:39;;;;;;;0.80;0.40;;;10.60;99.90;;;;;;5078124;28;20426;-57
2023/03/10 01:49:12;;;;;;;0.50;0.20;;;10.60;99.90;;;;;;5077193;28;20435;-51
2023/03/10 01:51:42;;;;;;;1.90;0.50;;;10.60;99.90;;;;;;5078196;28;20799;-56
2023/03/10 01:54:14;;;;;;;0.60;0.30;;;10.60;99.90;;;;;;5077716;28;20434;-55
2023/03/10 01:56:42;;;;;;;0.70;0.20;;;10.60;99.90;;;;;;5078512;28;20716;-54
2023/03/10 01:59:09;;;;;;;0.70;0.30;;;10.60;99.90;;;;;;5078397;28;20835;-56
2023/03/10 02:01:38;;;;;;;1.60;0.30;;;10.60;99.90;;;;;;5078443;28;20842;-56
2023/03/10 02:04:08;;;;;;;0.90;0.30;;;10.60;99.90;;;;;;5077471;28;20882;-56
2023/03/10 02:06:37;;;;;;;0.77;0.30;;;10.70;99.90;;;;;;5078087;28;20422;-55
2023/03/10 02:09:05;;;;;;;1.00;0.20;;;10.80;99.90;;;;;;5077388;28;20432;-54
2023/03/10 02:11:33;;;;;;;0.70;0.20;;;10.80;99.90;;;;;;5077884;28;20828;-57
2023/03/10 02:14:05;;;;;;;1.00;0.20;;;10.90;99.90;;;;;;5077762;28;20427;-54
2023/03/10 02:16:33;;;;;;;0.50;0.20;;;11.00;99.90;;;;;;5078028;28;20423;-54
2023/03/10 02:19:04;;;;;;;0.50;0.20;;;10.90;99.90;;;;;;5076238;28;20864;-55
2023/03/10 02:21:42;;;;;;;0.40;0.20;;;11.00;99.90;;;;;;5076684;28;20419;-55
2023/03/10 02:24:18;;;;;;;0.60;0.20;;;11.00;99.90;;;;;;5075938;28;20485;-55
2023/03/10 02:26:53;;;;;;;0.40;0.20;;;11.00;99.90;;;;;;5076484;28;20420;-55
2023/03/10 02:29:26;;;;;;;0.50;0.20;;;11.00;99.90;;;;;;5075905;28;20849;-54
2023/03/10 02:31:56;;;;;;;0.50;0.20;;;10.90;99.90;;;;;;5075883;28;20408;-54
2023/03/10 02:34:24;;;;;;;0.50;0.20;;;10.90;99.90;;;;;;5077242;28;20774;-55
2023/03/10 02:36:51;;;;;;;0.60;0.20;;;10.90;99.90;;;;;;5076606;28;20750;-53
2023/03/10 02:39:18;;;;;;;0.80;0.20;;;10.80;99.90;;;;;;5076609;28;20681;-55
2023/03/10 02:41:46;;;;;;;0.50;0.20;;;10.80;99.90;;;;;;5075311;28;20430;-53
2023/03/10 02:44:16;;;;;;;0.50;0.20;;;10.70;99.90;;;;;;5077040;28;20446;-55
2023/03/10 02:46:45;;;;;;;0.77;0.20;;;10.80;99.90;;;;;;5076614;28;20739;-53
2023/03/10 02:49:12;;;;;;;0.50;0.20;;;10.70;99.90;;;;;;5075809;28;20436;-55
2023/03/10 02:51:43;;;;;;;0.60;0.20;;;10.70;99.90;;;;;;5077063;28;20823;-56
2023/03/10 02:54:10;;;;;;;0.90;0.20;;;10.70;99.90;;;;;;5077007;28;20845;-51
2023/03/10 02:56:38;;;;;;;0.50;0.20;;;10.70;99.90;;;;;;5076873;28;20426;-58
2023/03/10 02:59:06;;;;;;;0.40;0.20;;;10.60;99.90;;;;;;5076737;28;20423;-54
2023/03/10 03:01:33;;;;;;;0.50;0.20;;;10.50;99.90;;;;;;5077029;28;20423;-53
2023/03/10 03:04:02;;;;;;;0.50;0.20;;;10.50;99.90;;;;;;5076994;28;20435;-49
2023/03/10 03:06:30;;;;;;;0.40;0.20;;;10.50;99.90;;;;;;5076480;28;20419;-55
2023/03/10 03:08:57;;;;;;;0.50;0.20;;;10.40;99.90;;;;;;5075460;28;20439;-57
2023/03/10 03:11:25;;;;;;;0.70;0.20;;;10.40;99.90;;;;;;5076727;28;20424;-55
2023/03/10 03:13:52;;;;;;;0.70;0.20;;;10.30;99.90;;;;;;5076723;28;20423;-55
2023/03/10 03:16:19;;;;;;;1.08;0.20;;;10.30;99.90;;;;;;5076999;28;20430;-54
2023/03/10 03:18:46;;;;;;;0.50;0.30;;;10.30;99.90;;;;;;5076574;28;20427;-55
2023/03/10 03:21:16;;;;;;;0.50;0.20;;;10.20;99.90;;;;;;5076322;28;20419;-51
2023/03/10 03:23:45;;;;;;;0.50;0.20;;;10.30;99.90;;;;;;5075915;28;20431;-53
2023/03/10 03:26:17;;;;;;;0.40;0.20;;;10.40;99.90;;;;;;5076671;28;20438;-54
2023/03/10 03:28:45;;;;;;;0.40;0.20;;;10.30;99.90;;;;;;5075999;28;20464;-55
2023/03/10 03:31:19;;;;;;;0.50;0.20;;;10.20;99.90;;;;;;5076424;28;20465;-54
2023/03/10 03:33:47;;;;;;;0.40;0.20;;;10.20;99.90;;;;;;5076770;28;20451;-54
2023/03/10 03:36:17;;;;;;;0.40;0.20;;;10.10;99.90;;;;;;5076554;28;20420;-54
2023/03/10 03:38:44;;;;;;;0.40;0.10;;;10.10;99.90;;;;;;5075362;28;20463;-55
2023/03/10 03:41:11;;;;;;;0.40;0.10;;;10.10;99.90;;;;;;5075730;28;20510;-54
2023/03/10 03:43:38;;;;;;;0.40;0.20;;;10.10;99.90;;;;;;5075327;28;20430;-52
2023/03/10 03:46:05;;;;;;;0.40;0.20;;;10.00;99.90;;;;;;5075158;28;20430;-54
2023/03/10 03:48:33;;;;;;;0.50;0.20;;;9.90;99.90;;;;;;5074352;28;20769;-55
2023/03/10 03:51:01;;;;;;;0.30;0.10;;;9.90;99.90;;;;;;5075405;28;20788;-54
2023/03/10 03:53:30;;;;;;;0.30;0.10;;;9.90;99.90;;;;;;5074841;28;20427;-52
2023/03/10 03:55:57;;;;;;;0.30;0.10;;;9.90;99.90;;;;;;5075930;28;20819;-55
2023/03/10 03:58:25;;;;;;;0.47;0.20;;;9.90;99.90;;;;;;5075744;28;20423;-56
2023/03/10 04:00:52;;;;;;;0.50;0.10;;;9.90;99.90;;;;;;5075647;28;20422;-56
2023/03/10 04:03:19;;;;;;;0.50;0.20;;;10.00;99.90;;;;;;5075915;28;20506;-55
2023/03/10 04:05:46;;;;;;;0.30;0.10;;;9.90;99.90;;;;;;5075719;28;20419;-56
2023/03/10 04:08:14;;;;;;;0.30;0.10;;;9.90;99.90;;;;;;5075046;28;20427;-52
2023/03/10 04:10:42;;;;;;;1.10;0.10;;;10.00;99.90;;;;;;5075387;28;20426;-54
2023/03/10 04:13:09;;;;;;;0.30;0.10;;;10.00;99.90;;;;;;5075542;28;20426;-52
2023/03/10 04:15:36;;;;;;;0.45;0.20;;;10.00;99.90;;;;;;5074930;28;20420;-56
2023/03/10 04:18:04;;;;;;;0.30;0.10;;;10.00;99.90;;;;;;5075050;28;20419;-55
2023/03/10 04:20:31;;;;;;;0.40;0.10;;;9.90;99.90;;;;;;5075440;28;20416;-56
2023/03/10 04:22:58;;;;;;;0.60;0.30;;;9.90;99.90;;;;;;5075662;28;20415;-56
2023/03/10 04:25:25;;;;;;;0.60;0.20;;;9.90;99.90;;;;;;5074891;28;20432;-56
2023/03/10 04:27:54;;;;;;;0.40;0.10;;;9.90;99.90;;;;;;5075631;28;20419;-51
2023/03/10 04:30:22;;;;;;;0.40;0.20;;;9.80;99.90;;;;;;5074119;28;20431;-53
2023/03/10 04:32:50;;;;;;;0.30;0.10;;;9.80;99.90;;;;;;5074554;28;20416;-57
2023/03/10 04:35:17;;;;;;;0.50;0.20;;;9.80;99.90;;;;;;5074463;28;20865;-56
2023/03/10 04:37:44;;;;;;;0.40;0.10;;;9.80;99.90;;;;;;5074426;28;20416;-52
2023/03/10 04:40:14;;;;;;;0.40;0.20;;;9.70;99.90;;;;;;5075310;28;20427;-55
2023/03/10 04:42:41;;;;;;;0.30;0.10;;;9.70;99.90;;;;;;5075693;28;20416;-55
2023/03/10 04:45:11;;;;;;;0.38;0.10;;;9.70;99.90;;;;;;5074315;28;20428;-54
2023/03/10 04:47:38;;;;;;;0.70;0.10;;;9.80;99.90;;;;;;5074566;28;20423;-55
2023/03/10 04:50:07;;;;;;;0.40;0.10;;;9.70;99.90;;;;;;5074289;28;20493;-52
2023/03/10 04:52:34;;;;;;;1.40;0.20;;;9.70;99.90;;;;;;5075462;28;20419;-54
2023/03/10 04:55:01;;;;;;;0.40;0.17;;;9.80;99.90;;;;;;5074451;28;20430;-52
2023/03/10 04:57:28;;;;;;;0.38;0.10;;;9.80;99.90;;;;;;5074883;28;20423;-52
2023/03/10 04:59:55;;;;;;;0.30;0.10;;;10.00;99.90;;;;;;5075261;28;20423;-53
2023/03/10 05:02:24;;;;;;;0.40;0.10;;;9.90;99.90;;;;;;5074283;28;20854;-51
2023/03/10 05:04:51;;;;;;;0.30;0.10;;;9.90;99.90;;;;;;5073887;28;20431;-57
2023/03/10 05:07:18;;;;;;;0.70;0.20;;;9.90;99.90;;;;;;5074436;28;20416;-54
2023/03/10 05:09:45;;;;;;;0.40;0.20;;;9.80;99.90;;;;;;5074582;28;20431;-55
2023/03/10 05:12:12;;;;;;;0.45;0.20;;;9.70;99.90;;;;;;5073738;28;20793;-51
2023/03/10 05:14:39;;;;;;;0.60;0.30;;;9.60;99.90;;;;;;5073442;28;20427;-54
2023/03/10 05:17:07;;;;;;;0.60;0.30;;;9.60;99.90;;;;;;5074238;28;20823;-54
2023/03/10 05:19:35;;;;;;;0.68;0.30;;;9.60;99.90;;;;;;5074645;28;20442;-56
2023/03/10 05:22:03;;;;;;;0.40;0.20;;;9.50;99.90;;;;;;5074646;28;20797;-56
2023/03/10 05:24:30;;;;;;;0.90;0.20;;;9.40;99.90;;;;;;5074784;28;20423;-53
2023/03/10 05:26:58;;;;;;;1.50;0.50;;;9.40;99.90;;;;;;5073145;28;20422;-56
2023/03/10 05:29:25;;;;;;;1.00;0.30;;;9.40;99.90;;;;;;5072045;28;20434;-54
2023/03/10 05:31:52;;;;;;;1.00;0.30;;;9.40;99.90;;;;;;5072701;28;20723;-55
2023/03/10 05:34:19;;;;;;;0.30;0.10;;;9.40;99.90;;;;;;5072556;28;20715;-54
2023/03/10 05:36:48;;;;;;;0.40;0.10;;;9.40;99.90;;;;;;5072657;28;20420;-50
2023/03/10 05:39:15;;;;;;;0.70;0.13;;;9.30;99.90;;;;;;5072480;28;20473;-53
2023/03/10 05:41:42;;;;;;;0.40;0.13;;;9.20;99.90;;;;;;5072754;28;20423;-49
2023/03/10 05:44:10;;;;;;;0.40;0.20;;;9.30;99.90;;;;;;5072107;28;20431;-55
2023/03/10 05:46:37;;;;;;;0.70;0.15;;;9.20;99.90;;;;;;5072391;28;20423;-55
2023/03/10 05:49:04;;;;;;;0.50;0.20;;;9.30;99.90;;;;;;5070999;28;20866;-55
2023/03/10 05:51:31;;;;;;;0.80;0.27;;;9.20;99.90;;;;;;5072834;28;20415;-55
2023/03/10 05:53:59;;;;;;;0.47;0.20;;;9.30;99.90;;;;;;5072551;28;20427;-53
2023/03/10 05:56:26;;;;;;;0.77;0.30;;;9.30;99.90;;;;;;5072711;28;20427;-54
2023/03/10 05:58:54;;;;;;;0.75;0.17;;;9.40;99.90;;;;;;5072094;28;20415;-54
2023/03/10 06:01:21;;;;;;;0.40;0.20;;;9.50;99.90;;;;;;5074476;28;20429;-55
2023/03/10 06:03:48;;;;;;;0.40;0.20;;;9.50;99.90;;;;;;5072942;28;20707;-56
2023/03/10 06:06:15;;;;;;;1.30;0.30;;;9.60;99.90;;;;;;5071358;28;20408;-54
2023/03/10 06:08:42;;;;;;;1.65;0.20;;;9.70;99.90;;;;;;5071431;28;20454;-54
2023/03/10 06:11:10;;;;;;;0.60;0.20;;;9.70;99.90;;;;;;5071063;28;20846;-56
2023/03/10 06:13:38;;;;;;;1.10;0.30;;;9.70;99.90;;;;;;5070767;28;20430;-54
2023/03/10 06:16:06;;;;;;;0.90;0.20;;;9.80;99.90;;;;;;5074211;28;20719;-51
2023/03/10 06:18:34;;;;;;;0.50;0.20;;;9.80;99.90;;;;;;5075067;28;20423;-53
2023/03/10 06:21:05;;;;;;;1.30;0.20;;;9.80;99.90;;;;;;5075769;28;20427;-52
2023/03/10 06:23:32;;;;;;;1.40;0.20;;;10.00;99.90;;;;;;5076471;28;20438;-55
2023/03/10 06:26:01;;;;;;;0.90;0.30;;;10.00;99.90;;;;;;5076246;28;20422;-50
2023/03/10 06:28:31;;;;;;;1.20;0.30;;;9.90;99.90;;;;;;5076031;28;20419;-51
2023/03/10 06:30:59;;;;;;;0.40;0.20;;;9.90;99.90;;;;;;5075862;28;20424;-49
2023/03/10 06:33:28;;;;;;;0.47;0.20;;;9.70;99.90;;;;;;5076786;28;20431;-50
2023/03/10 06:35:55;;;;;;;0.80;0.20;;;9.60;99.90;;;;;;5076672;28;20423;-51
2023/03/10 06:38:22;;;;;;;0.60;0.20;;;9.50;99.90;;;;;;5076750;28;20427;-51
2023/03/10 06:40:49;;;;;;;0.88;0.10;;;9.50;99.90;;;;;;5074958;28;20510;-50
2023/03/10 06:43:17;;;;;;;0.30;0.10;;;9.50;99.90;;;;;;5074823;28;20426;-52
2023/03/10 06:45:46;;;;;;;0.40;0.10;;;9.40;99.90;;;;;;5076642;28;20474;-51
2023/03/10 06:48:14;;;;;;;0.40;0.10;;;9.30;99.90;;;;;;5075567;28;20420;-50
2023/03/10 06:50:42;;;;;;;0.40;0.10;;;9.20;99.90;;;;;;5075561;28;20435;-51
2023/03/10 06:53:09;;;;;;;0.40;0.10;;;9.20;99.90;;;;;;5076116;28;20424;-50
2023/03/10 06:55:36;;;;;;;0.40;0.10;;;9.40;99.90;;;;;;5076746;28;20512;-55
2023/03/10 06:58:03;;;;;;;0.30;0.20;;;9.30;99.90;;;;;;5075122;28;20814;-55
2023/03/10 07:00:30;;;;;;;0.40;0.20;;;9.20;99.90;;;;;;5074699;28;20819;-53
2023/03/10 07:02:59;;;;;;;0.80;0.10;;;9.20;99.90;;;;;;5076252;28;20420;-54
2023/03/10 07:05:27;;;;;;;0.63;0.20;;;9.30;99.90;;;;;;5076143;28;20415;-55
2023/03/10 07:07:54;;;;;;;0.30;0.10;;;9.40;99.90;;;;;;5077782;28;20489;-53
2023/03/10 07:10:21;;;;;;;0.30;0.10;;;9.40;99.90;;;;;;5089000;28;20461;-54
2023/03/10 07:12:53;;;;;;;0.30;0.13;;;9.50;99.90;;;;;;5090564;28;20419;-53
2023/03/10 07:15:22;;;;;;;0.50;0.20;;;9.40;99.90;;;;;;5084205;28;20446;-50
2023/03/10 07:17:49;;;;;;;0.32;0.20;;;9.40;99.90;;;;;;5090967;28;20837;-54
2023/03/10 07:20:18;;;;;;;0.80;0.20;;;9.50;99.90;;;;;;5078674;28;20430;-49
2023/03/10 07:22:45;;;;;;;0.80;0.20;;;9.50;99.90;;;;;;5089981;28;20754;-52
2023/03/10 07:25:12;;;;;;;0.40;0.17;;;9.60;99.90;;;;;;5084090;28;20439;-49
2023/03/10 07:27:39;;;;;;;0.90;0.20;;;9.60;99.90;;;;;;5091422;28;20418;-50
2023/03/10 07:30:08;;;;;;;0.40;0.10;;;9.70;99.90;;;;;;5089574;28;20889;-52
2023/03/10 07:32:35;;;;;;;0.40;0.20;;;9.70;99.90;;;;;;5083837;28;20417;-53
2023/03/10 07:35:03;;;;;;;0.70;0.20;;;9.70;99.90;;;;;;5081254;28;20435;-54
2023/03/10 07:37:31;;;;;;;0.32;0.10;;;9.70;99.90;;;;;;5090038;28;20461;-53
2023/03/10 07:39:58;;;;;;;0.40;0.20;;;9.70;99.90;;;;;;5079361;28;20417;-54
2023/03/10 07:42:25;;;;;;;0.52;0.10;;;9.80;99.90;;;;;;5086292;28;20720;-53
2023/03/10 07:44:53;;;;;;;0.40;0.17;;;9.80;99.90;;;;;;5086276;28;20448;-54
2023/03/10 07:47:20;;;;;;;1.08;0.20;;;9.80;99.90;;;;;;5078502;28;20423;-53
2023/03/10 07:49:47;;;;;;;0.70;0.20;;;9.90;99.90;;;;;;5092982;28;20440;-54
2023/03/10 07:52:15;;;;;;;0.60;0.20;;;9.90;99.90;;;;;;5088571;28;20734;-51
2023/03/10 07:54:44;;;;;;;0.40;0.10;;;9.90;99.90;;;;;;5083465;28;20426;-53
2023/03/10 07:57:11;;;;;;;0.50;0.20;;;9.90;99.90;;;;;;5095622;28;20430;-53
2023/03/10 07:59:38;;;;;;;0.47;0.20;;;10.00;99.90;;;;;;5075873;28;20751;-52
2023/03/10 08:02:06;;;;;;;0.70;0.20;;;10.00;99.90;;;;;;5085682;28;20410;-50
2023/03/10 08:04:33;;;;;;;0.57;0.20;;;10.00;99.90;;;;;;5085987;28;20425;-50
2023/03/10 08:07:01;;;;;;;1.00;0.30;;;10.00;99.90;;;;;;5092169;28;20410;-51
2023/03/10 08:09:28;;;;;;;0.40;0.20;;;9.90;99.90;;;;;;5078860;28;20849;-54
2023/03/10 08:11:58;;;;;;;0.32;0.10;;;10.00;99.90;;;;;;5083995;28;20489;-48
2023/03/10 08:14:31;;;;;;;0.50;0.13;;;9.90;99.90;;;;;;5086448;28;20430;-51
2023/03/10 08:16:58;;;;;;;0.70;0.20;;;9.90;99.90;;;;;;5075048;28;20423;-50
2023/03/10 08:19:27;;;;;;;0.60;0.20;;;9.80;99.90;;;;;;5078451;28;20733;-51
2023/03/10 08:21:55;;;;;;;0.40;0.17;;;9.70;99.90;;;;;;5085311;28;20415;-49
2023/03/10 08:24:22;;;;;;;0.30;0.10;;;9.70;99.90;;;;;;5085495;28;20433;-50
2023/03/10 08:26:49;;;;;;;1.15;0.20;;;9.60;99.90;;;;;;5077041;28;20424;-52
2023/03/10 08:29:18;;;;;;;0.70;0.20;;;9.60;99.90;;;;;;5089820;28;20457;-52
2023/03/10 08:31:45;;;;;;;0.40;0.10;;;9.70;99.90;;;;;;5078580;28;20417;-51
2023/03/10 08:34:13;;;;;;;0.80;0.10;;;9.80;99.90;;;;;;5082213;28;20424;-52
2023/03/10 08:36:41;;;;;;;0.55;0.20;;;9.70;99.90;;;;;;5085331;28;20413;-50
2023/03/10 08:39:09;;;;;;;0.30;0.10;;;9.80;99.90;;;;;;5090605;28;20434;-49
2023/03/10 08:41:38;;;;;;;0.60;0.20;;;9.90;99.90;;;;;;5077958;28;20418;-53
2023/03/10 08:44:06;;;;;;;0.30;0.10;;;9.90;99.90;;;;;;5083715;28;20514;-53
2023/03/10 08:46:34;;;;;;;0.30;0.10;;;9.90;99.90;;;;;;5080946;28;20424;-52
2023/03/10 08:49:02;;;;;;;0.60;0.10;;;10.00;99.90;;;;;;5084298;28;20741;-49
2023/03/10 08:51:29;;;;;;;0.50;0.10;;;10.20;99.90;;;;;;5075352;28;20427;-54
2023/03/10 08:53:57;;;;;;;1.17;0.20;;;10.40;99.90;;;;;;5091163;28;20448;-49
2023/03/10 08:56:24;;;;;;;0.40;0.20;;;10.40;99.90;;;;;;5084700;28;20856;-51
2023/03/10 08:58:56;;;;;;;0.40;0.10;;;10.30;99.90;;;;;;5083092;28;20450;-54
2023/03/10 09:01:23;;;;;;;0.30;0.10;;;10.10;99.90;;;;;;5090876;28;20414;-53
2023/03/10 09:03:52;;;;;;;0.32;0.10;;;9.90;99.90;;;;;;5088038;28;20431;-54
2023/03/10 09:06:20;;;;;;;0.40;0.10;;;10.00;99.90;;;;;;5071245;28;20420;-55
2023/03/10 09:08:49;;;;;;;0.30;0.10;;;10.10;99.90;;;;;;5082351;28;20825;-54
2023/03/10 09:11:18;;;;;;;0.50;0.30;;;10.30;99.90;;;;;;5077492;28;20517;-54
2023/03/10 09:13:45;;;;;;;0.30;0.10;;;10.40;99.90;;;;;;5091422;28;20429;-54
2023/03/10 09:16:13;;;;;;;0.50;0.10;;;10.50;99.90;;;;;;5085483;28;20426;-53
2023/03/10 09:18:40;;;;;;;0.50;0.20;;;10.60;99.90;;;;;;5081711;28;20430;-54
2023/03/10 09:21:10;;;;;;;0.70;0.10;;;10.80;99.90;;;;;;5077122;28;20416;-54
2023/03/10 09:23:39;;;;;;;0.50;0.20;;;11.00;99.90;;;;;;5091417;28;20908;-53
2023/03/10 09:26:07;;;;;;;0.80;0.10;;;11.10;99.90;;;;;;5087030;28;20423;-52
2023/03/10 09:28:34;;;;;;;1.80;0.20;;;11.10;99.90;;;;;;5080598;28;20432;-52
2023/03/10 09:31:01;;;;;;;0.60;0.30;;;11.20;99.90;;;;;;5076336;28;20435;-52
2023/03/10 09:33:28;;;;;;;0.40;0.10;;;11.40;99.90;;;;;;5086789;28;20426;-48
2023/03/10 09:35:56;;;;;;;0.75;0.20;;;11.50;99.90;;;;;;5073749;28;20467;-53
2023/03/10 09:38:25;;;;;;;1.30;0.20;;;11.60;99.90;;;;;;5082040;28;20423;-49
2023/03/10 09:41:22;;;;;;;0.30;0.10;;;11.70;99.90;;;;;;5083818;28;20419;-52
2023/03/10 09:43:55;;;;;;;0.60;0.20;;;11.70;99.90;;;;;;5076340;28;20429;-53
2023/03/10 09:46:26;;;;;;;0.60;0.20;;;11.90;99.90;;;;;;5084597;28;20859;-49
2023/03/10 09:49:02;;;;;;;0.43;0.10;;;12.00;99.90;;;;;;5082166;28;20448;-48
2023/03/10 09:51:29;;;;;;;1.00;0.20;;;12.00;99.90;;;;;;5076440;28;20846;-52
2023/03/10 09:54:11;;;;;;;0.90;0.20;;;12.10;99.90;;;;;;5094492;28;20434;-50
2023/03/10 09:56:38;;;;;;;0.50;0.20;;;12.00;99.90;;;;;;5093962;28;20413;-56
2023/03/10 09:59:10;;;;;;;1.20;0.20;;;12.00;99.90;;;;;;5080776;28;20427;-50
2023/03/10 10:01:40;;;;;;;0.60;0.10;;;12.10;99.90;;;;;;5094351;28;20417;-49
2023/03/10 10:04:11;;;;;;;0.70;0.10;;;12.10;99.90;;;;;;5090269;28;20735;-53
2023/03/10 10:06:41;;;;;;;1.80;0.20;;;12.10;99.90;;;;;;5083754;28;20656;-53
2023/03/10 10:09:17;;;;;;;0.70;0.20;;;12.00;99.90;;;;;;5095767;28;20516;-53
2023/03/10 10:11:44;;;;;;;1.00;0.20;;;12.00;99.90;;;;;;5078499;28;20447;-53
2023/03/10 10:14:16;;;;;;;1.30;0.30;;;12.00;99.90;;;;;;5089770;28;20423;-55
2023/03/10 10:16:53;;;;;;;0.50;0.25;;;12.10;99.90;;;;;;5084573;28;20428;-53
2023/03/10 10:19:22;;;;;;;0.40;0.10;;;12.00;99.90;;;;;;5095207;28;20449;-53
2023/03/10 10:21:56;;;;;;;0.47;0.10;;;12.00;99.90;;;;;;5078300;28;20605;-52
2023/03/10 10:24:25;;;;;;;0.60;0.20;;;11.80;99.90;;;;;;5087205;28;20436;-53
2023/03/10 10:26:52;;;;;;;0.38;0.10;;;11.80;99.90;;;;;;5088624;28;20694;-52
2023/03/10 10:29:22;;;;;;;1.63;0.20;;;11.70;99.90;;;;;;5079317;28;20446;-51
2023/03/10 10:32:05;;;;;;;0.80;0.20;;;11.60;99.90;;;;;;5095337;28;20430;-52
2023/03/10 10:34:32;;;;;;;0.60;0.20;;;11.50;99.90;;;;;;5085864;28;20511;-53
2023/03/10 10:37:00;;;;;;;0.40;0.20;;;11.50;99.90;;;;;;5087272;28;20748;-50
2023/03/10 10:39:31;;;;;;;0.40;0.20;;;11.60;99.90;;;;;;5074950;28;20739;-54
2023/03/10 10:42:14;;;;;;;0.50;0.20;;;11.60;99.90;;;;;;5088801;28;20445;-49
2023/03/10 10:44:44;;;;;;;0.30;0.10;;;11.50;99.90;;;;;;5081797;28;20434;-53
2023/03/10 10:47:26;;;;;;;0.50;0.20;;;11.60;99.90;;;;;;5093978;28;20436;-50
2023/03/10 10:49:53;;;;;;;0.70;0.20;;;11.70;99.90;;;;;;5077331;28;20457;-54
2023/03/10 10:52:23;;;;;;;0.63;0.10;;;11.80;99.90;;;;;;5086850;28;20419;-51
2023/03/10 10:54:56;;;;;;;0.70;0.20;;;11.80;99.90;;;;;;5082844;28;20929;-50
2023/03/10 10:57:32;;;;;;;0.60;0.20;;;11.70;99.90;;;;;;5073879;28;20423;-52
2023/03/10 11:00:17;;;;;;;0.60;0.20;;;11.70;99.90;;;;;;5075050;28;20487;-51
2023/03/10 11:02:45;;;;;;;0.43;0.20;;;11.60;99.90;;;;;;5079621;28;20423;-53
2023/03/10 11:05:18;;;;;;;1.05;0.20;;;11.70;99.90;;;;;;5087224;28;20434;-53
2023/03/10 11:07:45;;;;;;;1.40;0.20;;;11.70;99.90;;;;;;5075707;28;20419;-51
2023/03/10 11:10:15;;;;;;;1.20;0.20;;;11.80;99.90;;;;;;5088368;28;20436;-55
2023/03/10 11:12:56;;;;;;;0.90;0.20;;;11.90;99.90;;;;;;5084057;28;20757;-56
2023/03/10 11:15:29;;;;;;;0.70;0.20;;;11.90;99.90;;;;;;5077895;28;20438;-51
2023/03/10 11:18:01;;;;;;;1.20;0.20;;;12.00;99.90;;;;;;5083589;28;20473;-53
2023/03/10 11:20:33;;;;;;;0.80;0.20;;;12.00;99.90;;;;;;5082116;28;20422;-50
2023/03/10 11:23:12;;;;;;;1.00;0.20;;;12.20;99.90;;;;;;5081012;28;20850;-50
2023/03/10 11:25:47;;;;;;;0.60;0.20;;;12.10;99.90;;;;;;5092313;28;20418;-59
2023/03/10 11:28:31;;;;;;;1.10;0.30;;;12.00;99.90;;;;;;5095735;28;20418;-61
2023/03/10 11:31:08;;;;;;;0.90;0.20;;;12.20;99.90;;;;;;5084114;28;20425;-60
2023/03/10 11:33:45;;;;;;;0.95;0.20;;;12.30;99.90;;;;;;5080694;28;20434;-59
2023/03/10 11:36:21;;;;;;;1.15;0.20;;;12.60;99.90;;;;;;5085100;28;20438;-59
2023/03/10 11:38:53;;;;;;;0.40;0.20;;;12.60;99.90;;;;;;5074800;28;20427;-59
2023/03/10 11:41:26;;;;;;;0.80;0.17;;;12.40;99.90;;;;;;5082406;28;20446;-60
2023/03/10 11:43:58;;;;;;;0.45;0.20;;;12.30;99.90;;;;;;5073733;28;20431;-59
2023/03/10 11:46:31;;;;;;;1.40;0.50;;;12.30;99.90;;;;;;5081256;28;20422;-59
2023/03/10 11:49:07;;;;;;;0.60;0.30;;;12.40;99.90;;;;;;5094017;28;20417;-59
2023/03/10 11:51:38;;;;;;;0.50;0.20;;;12.40;99.90;;;;;;5073563;28;20732;-59
2023/03/10 11:54:15;;;;;;;0.60;0.20;;;12.20;99.90;;;;;;5072648;28;20428;-58
2023/03/10 11:56:45;;;;;;;1.30;0.30;;;12.10;99.90;;;;;;5074566;28;20423;-60
2023/03/10 11:59:17;;;;;;;4.18;2.17;;;12.00;99.90;;;;;;5074313;28;20432;-59
2023/03/10 12:01:48;;;;;;;2.05;0.90;;;11.80;99.90;;;;;;5073645;28;20416;-60
2023/03/10 12:04:18;;;;;;;0.40;0.20;;;11.90;99.90;;;;;;5073674;28;20434;-59
2023/03/10 12:06:52;;;;;;;0.50;0.10;;;12.10;99.90;;;;;;5073424;28;20838;-60
2023/03/10 12:09:30;;;;;;;0.50;0.20;;;12.00;99.90;;;;;;5072053;28;20431;-60
2023/03/10 12:11:59;;;;;;;0.50;0.20;;;11.80;99.90;;;;;;5072064;28;20851;-60
2023/03/10 12:14:26;;;;;;;0.70;0.20;;;11.80;99.90;;;;;;5080148;28;20432;-59
2023/03/10 12:16:55;;;;;;;0.50;0.20;;;11.80;99.90;;;;;;5079138;28;20792;-60
2023/03/10 12:19:22;;;;;;;0.40;0.20;;;12.00;99.90;;;;;;5074747;28;20696;-60
2023/03/10 12:22:23;;;;;;;0.43;0.30;;;12.30;99.90;;;;;;5079881;28;20567;-59
2023/03/10 12:24:52;;;;;;;0.52;0.20;;;12.40;99.90;;;;;;5073216;28;20450;-59
2023/03/10 12:27:21;;;;;;;0.57;0.20;;;12.50;99.90;;;;;;5082956;28;20425;-61
2023/03/10 12:29:48;;;;;;;0.40;0.20;;;12.60;99.90;;;;;;5079602;28;20414;-60
2023/03/10 12:32:41;;;;;;;0.40;0.10;;;12.50;99.90;;;;;;5087422;28;20891;-59
2023/03/10 12:35:43;;;;;;;0.40;0.20;;;12.50;99.90;;;;;;5059616;28;20723;-59
2023/03/10 12:38:33;;;;;;;0.47;0.20;;;12.40;99.90;;;;;;5081856;28;20887;-58
2023/03/10 12:41:01;;;;;;;0.50;0.20;;;12.30;99.90;;;;;;5079508;28;20451;-59
2023/03/10 12:44:02;;;;;;;0.65;0.20;;;12.10;99.90;;;;;;5090720;28;20806;-58
2023/03/10 12:46:41;;;;;;;0.30;0.10;;;12.00;99.90;;;;;;5084469;28;20422;-60
2023/03/10 12:49:24;;;;;;;0.43;0.20;;;12.00;99.90;;;;;;5085727;28;20428;-62
2023/03/10 12:51:55;;;;;;;0.40;0.20;;;12.30;99.90;;;;;;5075900;28;20432;-62
2023/03/10 12:54:42;;;;;;;0.98;0.30;;;12.40;99.90;;;;;;5073978;28;20427;-62
2023/03/10 12:57:16;;;;;;;0.40;0.20;;;12.40;99.90;;;;;;5082014;28;20905;-62
2023/03/10 12:59:51;;;;;;;0.70;0.20;;;12.30;99.90;;;;;;5071654;28;20420;-62
2023/03/10 13:02:28;;;;;;;0.60;0.20;;;12.20;99.90;;;;;;5070967;28;20416;-61
2023/03/10 13:05:01;;;;;;;0.40;0.20;;;12.10;99.90;;;;;;5069703;28;20434;-62